Terminal Aerodrome Forecast
Issued by NWS

Home | Current Version | Previous Version | Text Only | Print | Product List | Glossary On
Versions: 1 2 3 4 5 6 7 8 9 10 11 12 13 14 15 16 17 18 19 20 21 22 23 24 25 26 27 28
070
FTUS44 KFWD 262100 AAA
TAFAFW
TAF AMD
KAFW 262100Z 2621/2718 11008KT P6SM VCSH SCT060 BKN090
     FM270000 07008KT P6SM VCSH BKN060
     FM270300 03007KT P6SM OVC050
     FM271200 03010KT P6SM SCT009 BKN015
      TEMPO 2712/2716 BKN009=

USA.gov is the U.S. government's official web portal to all federal, state and local government web resources and services.